Christian Radich — LJLM — position and weather

sailwx.info

Track history (hours):
 
Tides and Currents Weather Stations Pressure Air Temp Water Temp Dewpoint Dewpoint Depression Visibility Wind Speed Wind Dir Waves Ship Positions

Christian Radich (Norway)

Last reported at 2020-Aug-07 06:30 UTC. Time now 2020-Aug-07 09:39 UTC.
Position N 58°23' E 008°58'.

Length 63 m; draft 4.9 m.

Type: Sailing vessel. MMSI: 258373000.

Date/timePositionNaut miles runAvg speedWind from/ knotsBaromVisibWave heightAir tempDewpointWater temp
2020-Aug-07 06:30N 58°23' E 008°58'8 5.2
2020-Aug-07 05:00N 58°17' E 008°50'3 5.7
2020-Aug-07 04:30N 58°14' E 008°47'3 5.7
2020-Aug-07 04:00N 58°12' E 008°43'3 5.9
2020-Aug-07 03:30N 58°10' E 008°39'15 6.0
2020-Aug-07 01:00N 58°02' E 008°16'11 7.1
2020-Aug-06 23:30N 57°58' E 007°57'14 7.1
2020-Aug-06 21:30N 57°55' E 007°31'11 7.5
2020-Aug-06 20:00N 57°54' E 007°10'27 6.7
2020-Aug-06 16:00N 58°05' E 006°24'16 6.5
2020-Aug-06 13:31N 58°16' E 006°01'47 6.3
2020-Aug-06 06:00N 58°56' E 005°13'3 6.7
2020-Aug-06 05:30N 58°59' E 005°12'6 6.4
2020-Aug-06 04:30N 59°06' E 005°09'3 6.4
2020-Aug-06 04:00N 59°09' E 005°08'14 6.8
2020-Aug-06 02:00N 59°22' E 005°07'4 7.3
2020-Aug-06 01:30N 59°26' E 005°09'21 6.9
2020-Aug-05 22:30N 59°44' E 005°29'16 6.4
2020-Aug-05 20:00N 59°59' E 005°21'3 6.6
2020-Aug-05 19:30N 60°03' E 005°19'11 5.6
2020-Aug-05 17:30N 60°13' E 005°11'12 3.3
2020-Aug-05 13:56N 60°24' E 005°19'0 0.0
2020-Aug-05 12:59N 60°24' E 005°19'0 0.0
2020-Aug-05 12:29N 60°24' E 005°19'0 0.0
2020-Aug-05 09:29N 60°24' E 005°19'1 0.2
2020-Aug-05 06:30N 60°24' E 005°18'8 3.9
2020-Aug-05 04:30N 60°25' E 005°03'20 5.0
2020-Aug-05 00:30N 60°44' E 004°47'9 4.4
2020-Aug-04 22:30N 60°52' E 004°40'6 4.0
2020-Aug-04 21:00N 60°58' E 004°43'6 5.6
2020-Aug-04 19:59N 61°01' E 004°52'12 4.1
2020-Aug-04 17:00N 61°14' E 004°56'23 3.8
2020-Aug-04 11:00N 61°36' E 005°02'0 0.1
2020-Aug-04 09:30N 61°36' E 005°02'0 0.0
2020-Aug-04 09:00N 61°36' E 005°02'0 0.0
2020-Aug-04 08:30N 61°36' E 005°02'6 1.8
2020-Aug-04 05:00N 61°39' E 004°50'6 5.5
2020-Aug-04 04:00N 61°43' E 004°41'5 5.2
2020-Aug-04 02:59N 61°47' E 004°36'19 4.3
2020-Aug-03 22:30N 62°06' E 004°33'13 2.6
2020-Aug-03 17:30N 62°15' E 004°11'5 5.3
2020-Aug-03 16:30N 62°10' E 004°18'4 4.4
2020-Aug-03 15:29N 62°06' E 004°22'5 2.1
2020-Aug-03 13:00N 62°02' E 004°29'7 3.5
2020-Aug-03 11:00N 61°56' E 004°36'3 3.0
2020-Aug-03 10:00N 61°59' E 004°32'2 3.4
2020-Aug-03 09:30N 62°00' E 004°32'2 3.1
2020-Aug-03 09:00N 62°02' E 004°32'8 4.1
2020-Aug-03 07:00N 62°09' E 004°42'12 7.7
2020-Aug-03 05:30N 62°17' E 004°59'7 7.3
2020-Aug-03 04:30N 62°23' E 005°10'7 7.4
2020-Aug-03 03:30N 62°28' E 005°19'26 7.3
2020-Aug-03 00:00N 62°48' E 005°57'36 5.6
2020-Aug-02 17:30N 63°04' E 007°08'8 7.9
2020-Aug-02 16:30N 63°06' E 007°25'9 2.9
2020-Aug-02 13:29N 63°07' E 007°44'0 0.0
2020-Aug-02 13:00N 63°07' E 007°44'0 0.0
2020-Aug-02 12:30N 63°07' E 007°44'0 0.0
2020-Aug-02 10:28N 63°07' E 007°44'0 0.0
2020-Aug-02 09:59N 63°07' E 007°44'0 0.0
2020-Aug-02 06:28N 63°07' E 007°44'0 0.0
2020-Aug-02 04:59N 63°07' E 007°44'0 0.0
2020-Aug-02 04:29N 63°07' E 007°44'0 0.0
2020-Aug-02 04:00N 63°07' E 007°44'0 0.0
2020-Aug-02 03:00N 63°07' E 007°44'0 0.0
2020-Aug-02 01:58N 63°07' E 007°44'0 0.0
2020-Aug-02 00:59N 63°07' E 007°44'0 0.0
2020-Aug-01 22:30N 63°07' E 007°44'0 0.0
2020-Aug-01 15:59N 63°07' E 007°44'0 0.0
2020-Aug-01 14:00N 63°07' E 007°44'0 0.0
2020-Aug-01 11:29N 63°07' E 007°44'0 0.0
2020-Aug-01 09:30N 63°07' E 007°44'6 1.5
2020-Aug-01 05:30N 63°12' E 007°45'7 2.8
2020-Aug-01 03:00N 63°16' E 007°32'0 0.8
2020-Aug-01 02:30N 63°17' E 007°32'2 1.1
2020-Aug-01 00:30N 63°19' E 007°33'1 1.6
2020-Aug-01 00:00N 63°19' E 007°32'4 1.5
2020-Jul-31 21:30N 63°23' E 007°30'10 2.9
2020-Jul-31 18:00N 63°33' E 007°36'9 3.7
2020-Jul-31 15:30N 63°37' E 007°54'10 2.8
2020-Jul-31 12:00N 63°32' E 008°12'10 5.0
2020-Jul-31 10:00N 63°24' E 008°27'19 5.4
2020-Jul-31 06:30N 63°30' E 009°07'2 4.7
2020-Jul-31 06:00N 63°32' E 009°12'6 6.1
2020-Jul-31 05:00N 63°37' E 009°16'7 7.2
2020-Jul-31 04:00N 63°45' E 009°14'20 6.5
2020-Jul-31 01:00N 64°03' E 009°30'3 6.5
2020-Jul-31 00:30N 64°05' E 009°35'13 6.7
2020-Jul-30 22:30N 64°16' E 009°52'7 6.8
2020-Jul-30 21:30N 64°21' E 010°03'7 7.0
2020-Jul-30 20:30N 64°26' E 010°15'8 7.9
2020-Jul-30 19:30N 64°32' E 010°28'38 6.3
2020-Jul-30 13:30N 65°04' E 011°14'22 7.3
2020-Jul-30 10:30N 65°26' E 011°05'10 6.6
2020-Jul-30 09:00N 65°36' E 011°05'4 7.8
2020-Jul-30 08:30N 65°40' E 011°07'18 7.4
2020-Jul-30 06:00N 65°58' E 011°13'15 7.5
2020-Jul-30 04:00N 66°12' E 011°23'46 6.5
2020-Jul-29 20:59N 66°50' E 012°28'3 5.2
2020-Jul-29 20:30N 66°52' E 012°33'5 5.2
2020-Jul-29 19:30N 66°56' E 012°42'13 5.3
2020-Jul-29 17:00N 67°04' E 013°09'4 7.8
2020-Jul-29 16:30N 67°05' E 013°19'8 8.0
2020-Jul-29 15:30N 67°07' E 013°39'8 7.8
2020-Jul-29 14:30N 67°11' E 013°56'12 2.4
2020-Jul-29 09:29N 67°17' E 014°23'3 0.7
2020-Jul-29 05:01N 67°19' E 014°15'8 3.9
2020-Jul-29 03:01N 67°22' E 013°57'8 3.9
2020-Jul-29 01:00N 67°25' E 013°38'7 4.8
2020-Jul-28 23:30N 67°29' E 013°21'20 4.9
2020-Jul-28 19:29N 67°38' E 012°37'1 0.3
2020-Jul-28 17:00N 67°39' E 012°37'0 0.0
2020-Jul-28 14:58N 67°39' E 012°37'5 2.6
2020-Jul-28 13:01N 67°43' E 012°30'9 6.2
2020-Jul-28 11:30N 67°49' E 012°50'0 0.6
2020-Jul-28 11:00N 67°49' E 012°51'0 0.2
2020-Jul-28 10:30N 67°49' E 012°51'1 0.7
2020-Jul-28 09:29N 67°49' E 012°53'  
Track history (hours):
 
Tides and Currents Weather Stations Pressure Air Temp Water Temp Dewpoint Dewpoint Depression Visibility Wind Speed Wind Dir Waves Ship Positions

Christian Radich (Norway)

Last reported at 2020-Aug-07 06:30 UTC. Time now 2020-Aug-07 09:39 UTC.
Position N 58°23' E 008°58'.

Length 63 m; draft 4.9 m.

Type: Sailing vessel. MMSI: 258373000.

Date/timePositionNaut miles runAvg speedWind from/ knotsBaromVisibWave heightAir tempDewpointWater temp
2020-Aug-07 06:30N 58°23' E 008°58'8 5.2
2020-Aug-07 05:00N 58°17' E 008°50'3 5.7
2020-Aug-07 04:30N 58°14' E 008°47'3 5.7
2020-Aug-07 04:00N 58°12' E 008°43'3 5.9
2020-Aug-07 03:30N 58°10' E 008°39'15 6.0
2020-Aug-07 01:00N 58°02' E 008°16'11 7.1
2020-Aug-06 23:30N 57°58' E 007°57'14 7.1
2020-Aug-06 21:30N 57°55' E 007°31'11 7.5
2020-Aug-06 20:00N 57°54' E 007°10'27 6.7
2020-Aug-06 16:00N 58°05' E 006°24'16 6.5
2020-Aug-06 13:31N 58°16' E 006°01'47 6.3
2020-Aug-06 06:00N 58°56' E 005°13'3 6.7
2020-Aug-06 05:30N 58°59' E 005°12'6 6.4
2020-Aug-06 04:30N 59°06' E 005°09'3 6.4
2020-Aug-06 04:00N 59°09' E 005°08'14 6.8
2020-Aug-06 02:00N 59°22' E 005°07'4 7.3
2020-Aug-06 01:30N 59°26' E 005°09'21 6.9
2020-Aug-05 22:30N 59°44' E 005°29'16 6.4
2020-Aug-05 20:00N 59°59' E 005°21'3 6.6
2020-Aug-05 19:30N 60°03' E 005°19'11 5.6
2020-Aug-05 17:30N 60°13' E 005°11'12 3.3
2020-Aug-05 13:56N 60°24' E 005°19'0 0.0
2020-Aug-05 12:59N 60°24' E 005°19'0 0.0
2020-Aug-05 12:29N 60°24' E 005°19'0 0.0
2020-Aug-05 09:29N 60°24' E 005°19'1 0.2
2020-Aug-05 06:30N 60°24' E 005°18'8 3.9
2020-Aug-05 04:30N 60°25' E 005°03'20 5.0
2020-Aug-05 00:30N 60°44' E 004°47'9 4.4
2020-Aug-04 22:30N 60°52' E 004°40'6 4.0
2020-Aug-04 21:00N 60°58' E 004°43'6 5.6
2020-Aug-04 19:59N 61°01' E 004°52'12 4.1
2020-Aug-04 17:00N 61°14' E 004°56'23 3.8
2020-Aug-04 11:00N 61°36' E 005°02'0 0.1
2020-Aug-04 09:30N 61°36' E 005°02'0 0.0
2020-Aug-04 09:00N 61°36' E 005°02'0 0.0
2020-Aug-04 08:30N 61°36' E 005°02'6 1.8
2020-Aug-04 05:00N 61°39' E 004°50'6 5.5
2020-Aug-04 04:00N 61°43' E 004°41'5 5.2
2020-Aug-04 02:59N 61°47' E 004°36'19 4.3
2020-Aug-03 22:30N 62°06' E 004°33'13 2.6
2020-Aug-03 17:30N 62°15' E 004°11'5 5.3
2020-Aug-03 16:30N 62°10' E 004°18'4 4.4
2020-Aug-03 15:29N 62°06' E 004°22'5 2.1
2020-Aug-03 13:00N 62°02' E 004°29'7 3.5
2020-Aug-03 11:00N 61°56' E 004°36'3 3.0
2020-Aug-03 10:00N 61°59' E 004°32'2 3.4
2020-Aug-03 09:30N 62°00' E 004°32'2 3.1
2020-Aug-03 09:00N 62°02' E 004°32'8 4.1
2020-Aug-03 07:00N 62°09' E 004°42'12 7.7
2020-Aug-03 05:30N 62°17' E 004°59'7 7.3
2020-Aug-03 04:30N 62°23' E 005°10'7 7.4
2020-Aug-03 03:30N 62°28' E 005°19'26 7.3
2020-Aug-03 00:00N 62°48' E 005°57'36 5.6
2020-Aug-02 17:30N 63°04' E 007°08'8 7.9
2020-Aug-02 16:30N 63°06' E 007°25'9 2.9
2020-Aug-02 13:29N 63°07' E 007°44'0 0.0
2020-Aug-02 13:00N 63°07' E 007°44'0 0.0
2020-Aug-02 12:30N 63°07' E 007°44'0 0.0
2020-Aug-02 10:28N 63°07' E 007°44'0 0.0
2020-Aug-02 09:59N 63°07' E 007°44'0 0.0
2020-Aug-02 06:28N 63°07' E 007°44'0 0.0
2020-Aug-02 04:59N 63°07' E 007°44'0 0.0
2020-Aug-02 04:29N 63°07' E 007°44'0 0.0
2020-Aug-02 04:00N 63°07' E 007°44'0 0.0
2020-Aug-02 03:00N 63°07' E 007°44'0 0.0
2020-Aug-02 01:58N 63°07' E 007°44'0 0.0
2020-Aug-02 00:59N 63°07' E 007°44'0 0.0
2020-Aug-01 22:30N 63°07' E 007°44'0 0.0
2020-Aug-01 15:59N 63°07' E 007°44'0 0.0
2020-Aug-01 14:00N 63°07' E 007°44'0 0.0
2020-Aug-01 11:29N 63°07' E 007°44'0 0.0
2020-Aug-01 09:30N 63°07' E 007°44'6 1.5
2020-Aug-01 05:30N 63°12' E 007°45'7 2.8
2020-Aug-01 03:00N 63°16' E 007°32'0 0.8
2020-Aug-01 02:30N 63°17' E 007°32'2 1.1
2020-Aug-01 00:30N 63°19' E 007°33'1 1.6
2020-Aug-01 00:00N 63°19' E 007°32'4 1.5
2020-Jul-31 21:30N 63°23' E 007°30'10 2.9
2020-Jul-31 18:00N 63°33' E 007°36'9 3.7
2020-Jul-31 15:30N 63°37' E 007°54'10 2.8
2020-Jul-31 12:00N 63°32' E 008°12'10 5.0
2020-Jul-31 10:00N 63°24' E 008°27'19 5.4
2020-Jul-31 06:30N 63°30' E 009°07'2 4.7
2020-Jul-31 06:00N 63°32' E 009°12'6 6.1
2020-Jul-31 05:00N 63°37' E 009°16'7 7.2
2020-Jul-31 04:00N 63°45' E 009°14'20 6.5
2020-Jul-31 01:00N 64°03' E 009°30'3 6.5
2020-Jul-31 00:30N 64°05' E 009°35'13 6.7
2020-Jul-30 22:30N 64°16' E 009°52'7 6.8
2020-Jul-30 21:30N 64°21' E 010°03'7 7.0
2020-Jul-30 20:30N 64°26' E 010°15'8 7.9
2020-Jul-30 19:30N 64°32' E 010°28'38 6.3
2020-Jul-30 13:30N 65°04' E 011°14'22 7.3
2020-Jul-30 10:30N 65°26' E 011°05'10 6.6
2020-Jul-30 09:00N 65°36' E 011°05'4 7.8
2020-Jul-30 08:30N 65°40' E 011°07'18 7.4
2020-Jul-30 06:00N 65°58' E 011°13'15 7.5
2020-Jul-30 04:00N 66°12' E 011°23'46 6.5
2020-Jul-29 20:59N 66°50' E 012°28'3 5.2
2020-Jul-29 20:30N 66°52' E 012°33'5 5.2
2020-Jul-29 19:30N 66°56' E 012°42'13 5.3
2020-Jul-29 17:00N 67°04' E 013°09'4 7.8
2020-Jul-29 16:30N 67°05' E 013°19'8 8.0
2020-Jul-29 15:30N 67°07' E 013°39'8 7.8
2020-Jul-29 14:30N 67°11' E 013°56'12 2.4
2020-Jul-29 09:29N 67°17' E 014°23'3 0.7
2020-Jul-29 05:01N 67°19' E 014°15'8 3.9
2020-Jul-29 03:01N 67°22' E 013°57'8 3.9
2020-Jul-29 01:00N 67°25' E 013°38'7 4.8
2020-Jul-28 23:30N 67°29' E 013°21'20 4.9
2020-Jul-28 19:29N 67°38' E 012°37'1 0.3
2020-Jul-28 17:00N 67°39' E 012°37'0 0.0
2020-Jul-28 14:58N 67°39' E 012°37'5 2.6
2020-Jul-28 13:01N 67°43' E 012°30'9 6.2
2020-Jul-28 11:30N 67°49' E 012°50'0 0.6
2020-Jul-28 11:00N 67°49' E 012°51'0 0.2
2020-Jul-28 10:30N 67°49' E 012°51'1 0.7
2020-Jul-28 09:29N 67°49' E 012°53'  

Dump ship's entire track history